sensor_id;sensor_type;location;lat;lon;timestamp;P1;durP1;ratioP1;P2;durP2;ratioP2
12585;SDS011;6358;50.760;0.282;2023-02-03T00:01:22;2.90;;;1.40;;
12585;SDS011;6358;50.760;0.282;2023-02-03T00:03:48;2.67;;;1.20;;
12585;SDS011;6358;50.760;0.282;2023-02-03T00:06:15;2.10;;;1.17;;
12585;SDS011;6358;50.760;0.282;2023-02-03T00:08:42;1.47;;;1.07;;
12585;SDS011;6358;50.760;0.282;2023-02-03T00:11:08;2.33;;;1.30;;
12585;SDS011;6358;50.760;0.282;2023-02-03T00:13:34;2.30;;;1.27;;
12585;SDS011;6358;50.760;0.282;2023-02-03T00:16:00;3.67;;;1.50;;
12585;SDS011;6358;50.760;0.282;2023-02-03T00:18:27;2.03;;;0.97;;
12585;SDS011;6358;50.760;0.282;2023-02-03T00:20:53;2.23;;;1.37;;
12585;SDS011;6358;50.760;0.282;2023-02-03T00:23:19;2.67;;;1.07;;
12585;SDS011;6358;50.760;0.282;2023-02-03T00:25:45;2.97;;;1.30;;
12585;SDS011;6358;50.760;0.282;2023-02-03T00:28:11;2.17;;;1.30;;
12585;SDS011;6358;50.760;0.282;2023-02-03T00:30:37;3.10;;;1.23;;
12585;SDS011;6358;50.760;0.282;2023-02-03T00:33:03;3.53;;;1.30;;
12585;SDS011;6358;50.760;0.282;2023-02-03T00:35:30;7.30;;;1.60;;
12585;SDS011;6358;50.760;0.282;2023-02-03T00:37:57;2.67;;;1.20;;
12585;SDS011;6358;50.760;0.282;2023-02-03T00:40:24;1.83;;;0.83;;
12585;SDS011;6358;50.760;0.282;2023-02-03T00:42:50;2.67;;;1.43;;
12585;SDS011;6358;50.760;0.282;2023-02-03T00:45:16;2.83;;;1.20;;
12585;SDS011;6358;50.760;0.282;2023-02-03T00:47:42;2.30;;;1.30;;
12585;SDS011;6358;50.760;0.282;2023-02-03T00:50:09;3.17;;;1.10;;
12585;SDS011;6358;50.760;0.282;2023-02-03T00:52:35;0.97;;;0.93;;
12585;SDS011;6358;50.760;0.282;2023-02-03T00:55:01;3.43;;;1.10;;
12585;SDS011;6358;50.760;0.282;2023-02-03T00:57:28;0.73;;;0.73;;
12585;SDS011;6358;50.760;0.282;2023-02-03T00:59:54;2.77;;;1.20;;
12585;SDS011;6358;50.760;0.282;2023-02-03T01:02:21;2.17;;;1.10;;
12585;SDS011;6358;50.760;0.282;2023-02-03T01:04:47;2.53;;;1.40;;
12585;SDS011;6358;50.760;0.282;2023-02-03T01:07:14;2.17;;;1.17;;
12585;SDS011;6358;50.760;0.282;2023-02-03T01:09:40;3.53;;;1.40;;
12585;SDS011;6358;50.760;0.282;2023-02-03T01:12:06;2.70;;;1.03;;
12585;SDS011;6358;50.760;0.282;2023-02-03T01:14:32;2.00;;;1.20;;
12585;SDS011;6358;50.760;0.282;2023-02-03T01:16:59;1.83;;;1.07;;
12585;SDS011;6358;50.760;0.282;2023-02-03T01:19:25;1.97;;;1.20;;
12585;SDS011;6358;50.760;0.282;2023-02-03T01:21:51;2.37;;;1.20;;
12585;SDS011;6358;50.760;0.282;2023-02-03T01:24:19;2.50;;;1.30;;
12585;SDS011;6358;50.760;0.282;2023-02-03T01:26:45;3.33;;;1.40;;
12585;SDS011;6358;50.760;0.282;2023-02-03T01:29:11;2.17;;;1.37;;
12585;SDS011;6358;50.760;0.282;2023-02-03T01:31:38;2.63;;;1.33;;
12585;SDS011;6358;50.760;0.282;2023-02-03T01:34:05;1.67;;;1.10;;
12585;SDS011;6358;50.760;0.282;2023-02-03T01:36:33;2.13;;;1.10;;
12585;SDS011;6358;50.760;0.282;2023-02-03T01:39:00;2.27;;;1.23;;
12585;SDS011;6358;50.760;0.282;2023-02-03T01:41:28;2.60;;;1.20;;
12585;SDS011;6358;50.760;0.282;2023-02-03T01:43:55;2.67;;;1.23;;
12585;SDS011;6358;50.760;0.282;2023-02-03T01:49:05;2.27;;;1.20;;
12585;SDS011;6358;50.760;0.282;2023-02-03T01:51:32;3.13;;;1.10;;
12585;SDS011;6358;50.760;0.282;2023-02-03T01:53:58;1.70;;;1.00;;
12585;SDS011;6358;50.760;0.282;2023-02-03T01:56:27;3.03;;;1.30;;
12585;SDS011;6358;50.760;0.282;2023-02-03T01:58:55;1.50;;;1.00;;
12585;SDS011;6358;50.760;0.282;2023-02-03T02:01:22;1.60;;;1.00;;
12585;SDS011;6358;50.760;0.282;2023-02-03T02:03:51;3.37;;;1.30;;
12585;SDS011;6358;50.760;0.282;2023-02-03T02:06:18;3.40;;;1.20;;
12585;SDS011;6358;50.760;0.282;2023-02-03T02:08:45;2.23;;;1.27;;
12585;SDS011;6358;50.760;0.282;2023-02-03T02:11:12;1.93;;;1.00;;
12585;SDS011;6358;50.760;0.282;2023-02-03T02:13:39;2.43;;;0.90;;
12585;SDS011;6358;50.760;0.282;2023-02-03T02:16:09;2.50;;;1.10;;
12585;SDS011;6358;50.760;0.282;2023-02-03T02:21:37;2.20;;;1.03;;
12585;SDS011;6358;50.760;0.282;2023-02-03T02:26:56;2.87;;;1.23;;
12585;SDS011;6358;50.760;0.282;2023-02-03T02:32:31;3.53;;;1.37;;
12585;SDS011;6358;50.760;0.282;2023-02-03T02:35:13;2.20;;;1.13;;
12585;SDS011;6358;50.760;0.282;2023-02-03T02:37:56;2.50;;;1.10;;
12585;SDS011;6358;50.760;0.282;2023-02-03T02:40:27;2.77;;;1.40;;
12585;SDS011;6358;50.760;0.282;2023-02-03T02:45:33;3.47;;;1.30;;
12585;SDS011;6358;50.760;0.282;2023-02-03T02:48:12;2.13;;;1.07;;
12585;SDS011;6358;50.760;0.282;2023-02-03T02:50:40;2.90;;;1.20;;
12585;SDS011;6358;50.760;0.282;2023-02-03T02:53:07;2.13;;;0.90;;
12585;SDS011;6358;50.760;0.282;2023-02-03T02:55:38;2.43;;;1.20;;
12585;SDS011;6358;50.760;0.282;2023-02-03T02:58:06;2.37;;;1.20;;
12585;SDS011;6358;50.760;0.282;2023-02-03T03:00:34;2.97;;;1.03;;
12585;SDS011;6358;50.760;0.282;2023-02-03T03:03:13;2.77;;;1.20;;
12585;SDS011;6358;50.760;0.282;2023-02-03T03:05:40;2.03;;;1.17;;
12585;SDS011;6358;50.760;0.282;2023-02-03T03:08:07;1.93;;;1.00;;
12585;SDS011;6358;50.760;0.282;2023-02-03T03:10:34;2.50;;;1.17;;
12585;SDS011;6358;50.760;0.282;2023-02-03T03:13:04;4.10;;;1.33;;
12585;SDS011;6358;50.760;0.282;2023-02-03T03:15:32;1.87;;;1.10;;
12585;SDS011;6358;50.760;0.282;2023-02-03T03:18:00;1.80;;;1.10;;
12585;SDS011;6358;50.760;0.282;2023-02-03T03:20:29;2.43;;;1.20;;
12585;SDS011;6358;50.760;0.282;2023-02-03T03:23:06;2.53;;;1.20;;
12585;SDS011;6358;50.760;0.282;2023-02-03T03:25:36;2.00;;;0.97;;
12585;SDS011;6358;50.760;0.282;2023-02-03T03:28:05;3.23;;;1.30;;
12585;SDS011;6358;50.760;0.282;2023-02-03T03:30:33;3.33;;;1.40;;
12585;SDS011;6358;50.760;0.282;2023-02-03T03:33:00;2.60;;;1.10;;
12585;SDS011;6358;50.760;0.282;2023-02-03T03:35:36;2.27;;;1.20;;
12585;SDS011;6358;50.760;0.282;2023-02-03T03:38:08;2.50;;;1.00;;
12585;SDS011;6358;50.760;0.282;2023-02-03T03:40:37;3.13;;;1.13;;
12585;SDS011;6358;50.760;0.282;2023-02-03T03:48:27;3.80;;;1.30;;
12585;SDS011;6358;50.760;0.282;2023-02-03T03:50:52;1.93;;;1.10;;
12585;SDS011;6358;50.760;0.282;2023-02-03T03:53:20;3.57;;;1.10;;
12585;SDS011;6358;50.760;0.282;2023-02-03T03:55:49;1.57;;;0.93;;
12585;SDS011;6358;50.760;0.282;2023-02-03T03:58:19;2.27;;;1.23;;
12585;SDS011;6358;50.760;0.282;2023-02-03T04:00:47;1.47;;;1.03;;
12585;SDS011;6358;50.760;0.282;2023-02-03T04:03:14;2.77;;;1.27;;
12585;SDS011;6358;50.760;0.282;2023-02-03T04:05:41;1.93;;;0.97;;
12585;SDS011;6358;50.760;0.282;2023-02-03T04:08:07;2.60;;;1.27;;
12585;SDS011;6358;50.760;0.282;2023-02-03T04:10:38;2.13;;;1.10;;
12585;SDS011;6358;50.760;0.282;2023-02-03T04:13:05;1.87;;;1.20;;
12585;SDS011;6358;50.760;0.282;2023-02-03T04:15:32;1.80;;;1.07;;
12585;SDS011;6358;50.760;0.282;2023-02-03T04:18:00;1.77;;;1.00;;
12585;SDS011;6358;50.760;0.282;2023-02-03T04:20:30;1.70;;;1.03;;
12585;SDS011;6358;50.760;0.282;2023-02-03T04:22:56;2.77;;;1.20;;
12585;SDS011;6358;50.760;0.282;2023-02-03T04:25:22;2.00;;;0.90;;
12585;SDS011;6358;50.760;0.282;2023-02-03T04:27:48;3.47;;;1.03;;
12585;SDS011;6358;50.760;0.282;2023-02-03T04:30:15;1.37;;;0.90;;
12585;SDS011;6358;50.760;0.282;2023-02-03T04:32:42;1.87;;;1.03;;
12585;SDS011;6358;50.760;0.282;2023-02-03T04:35:09;1.80;;;1.10;;
12585;SDS011;6358;50.760;0.282;2023-02-03T04:37:35;2.03;;;1.10;;
12585;SDS011;6358;50.760;0.282;2023-02-03T04:40:01;1.83;;;1.07;;
12585;SDS011;6358;50.760;0.282;2023-02-03T04:42:27;2.60;;;1.03;;
12585;SDS011;6358;50.760;0.282;2023-02-03T04:44:53;1.40;;;1.03;;
12585;SDS011;6358;50.760;0.282;2023-02-03T04:47:21;1.53;;;0.90;;
12585;SDS011;6358;50.760;0.282;2023-02-03T04:49:47;2.17;;;1.10;;
12585;SDS011;6358;50.760;0.282;2023-02-03T04:52:13;2.77;;;1.00;;
12585;SDS011;6358;50.760;0.282;2023-02-03T04:54:39;1.10;;;0.90;;
12585;SDS011;6358;50.760;0.282;2023-02-03T04:57:05;1.97;;;1.10;;
12585;SDS011;6358;50.760;0.282;2023-02-03T04:59:31;2.77;;;1.10;;
12585;SDS011;6358;50.760;0.282;2023-02-03T05:01:57;1.43;;;1.00;;
12585;SDS011;6358;50.760;0.282;2023-02-03T05:04:26;1.73;;;1.17;;
12585;SDS011;6358;50.760;0.282;2023-02-03T05:06:52;1.40;;;1.10;;
12585;SDS011;6358;50.760;0.282;2023-02-03T05:09:20;1.97;;;1.03;;
12585;SDS011;6358;50.760;0.282;2023-02-03T05:11:46;2.33;;;1.10;;
12585;SDS011;6358;50.760;0.282;2023-02-03T05:14:12;2.53;;;1.10;;
12585;SDS011;6358;50.760;0.282;2023-02-03T05:16:38;1.20;;;0.93;;
12585;SDS011;6358;50.760;0.282;2023-02-03T05:19:04;2.03;;;0.90;;
12585;SDS011;6358;50.760;0.282;2023-02-03T05:21:30;3.03;;;1.20;;
12585;SDS011;6358;50.760;0.282;2023-02-03T05:23:56;2.23;;;1.30;;
12585;SDS011;6358;50.760;0.282;2023-02-03T05:26:22;1.73;;;0.90;;
12585;SDS011;6358;50.760;0.282;2023-02-03T05:28:48;1.70;;;0.90;;
12585;SDS011;6358;50.760;0.282;2023-02-03T05:31:14;1.30;;;0.90;;
12585;SDS011;6358;50.760;0.282;2023-02-03T05:33:41;2.27;;;1.27;;
12585;SDS011;6358;50.760;0.282;2023-02-03T05:36:07;0.97;;;0.77;;
12585;SDS011;6358;50.760;0.282;2023-02-03T05:38:33;2.90;;;1.20;;
12585;SDS011;6358;50.760;0.282;2023-02-03T05:40:59;1.80;;;1.00;;
12585;SDS011;6358;50.760;0.282;2023-02-03T05:43:44;2.03;;;1.00;;
12585;SDS011;6358;50.760;0.282;2023-02-03T05:46:10;1.83;;;1.10;;
12585;SDS011;6358;50.760;0.282;2023-02-03T05:48:36;4.07;;;1.07;;
12585;SDS011;6358;50.760;0.282;2023-02-03T05:51:02;1.47;;;1.07;;
12585;SDS011;6358;50.760;0.282;2023-02-03T05:53:28;3.17;;;1.00;;
12585;SDS011;6358;50.760;0.282;2023-02-03T05:55:54;2.17;;;1.10;;
12585;SDS011;6358;50.760;0.282;2023-02-03T05:58:20;1.37;;;0.90;;
12585;SDS011;6358;50.760;0.282;2023-02-03T06:00:47;2.10;;;1.10;;
12585;SDS011;6358;50.760;0.282;2023-02-03T06:03:13;2.27;;;1.00;;
12585;SDS011;6358;50.760;0.282;2023-02-03T06:05:39;2.43;;;0.90;;
12585;SDS011;6358;50.760;0.282;2023-02-03T06:08:08;1.67;;;1.00;;
12585;SDS011;6358;50.760;0.282;2023-02-03T06:10:34;1.97;;;1.00;;
12585;SDS011;6358;50.760;0.282;2023-02-03T06:13:07;2.80;;;1.10;;
12585;SDS011;6358;50.760;0.282;2023-02-03T06:15:34;2.27;;;0.97;;
12585;SDS011;6358;50.760;0.282;2023-02-03T06:18:00;1.97;;;1.00;;
12585;SDS011;6358;50.760;0.282;2023-02-03T06:20:26;2.33;;;1.00;;
12585;SDS011;6358;50.760;0.282;2023-02-03T06:22:52;1.63;;;0.90;;
12585;SDS011;6358;50.760;0.282;2023-02-03T06:25:18;1.67;;;1.10;;
12585;SDS011;6358;50.760;0.282;2023-02-03T06:27:44;2.03;;;1.20;;
12585;SDS011;6358;50.760;0.282;2023-02-03T06:30:10;1.77;;;1.00;;
12585;SDS011;6358;50.760;0.282;2023-02-03T06:32:37;1.90;;;1.07;;
12585;SDS011;6358;50.760;0.282;2023-02-03T06:35:03;1.53;;;0.87;;
12585;SDS011;6358;50.760;0.282;2023-02-03T06:37:29;2.60;;;0.90;;
12585;SDS011;6358;50.760;0.282;2023-02-03T06:39:56;3.40;;;1.40;;
12585;SDS011;6358;50.760;0.282;2023-02-03T06:42:22;1.77;;;0.87;;
12585;SDS011;6358;50.760;0.282;2023-02-03T06:44:48;2.30;;;0.90;;
12585;SDS011;6358;50.760;0.282;2023-02-03T06:47:14;1.50;;;0.93;;
12585;SDS011;6358;50.760;0.282;2023-02-03T06:49:40;1.17;;;0.83;;
12585;SDS011;6358;50.760;0.282;2023-02-03T06:52:06;2.90;;;1.10;;
12585;SDS011;6358;50.760;0.282;2023-02-03T06:54:33;2.60;;;1.13;;
12585;SDS011;6358;50.760;0.282;2023-02-03T06:56:59;2.43;;;1.00;;
12585;SDS011;6358;50.760;0.282;2023-02-03T06:59:25;2.57;;;0.97;;
12585;SDS011;6358;50.760;0.282;2023-02-03T07:01:52;2.30;;;1.20;;
12585;SDS011;6358;50.760;0.282;2023-02-03T07:04:19;1.73;;;0.90;;
12585;SDS011;6358;50.760;0.282;2023-02-03T07:06:45;1.53;;;1.10;;
12585;SDS011;6358;50.760;0.282;2023-02-03T07:09:11;1.27;;;0.80;;
12585;SDS011;6358;50.760;0.282;2023-02-03T07:11:37;2.60;;;1.10;;
12585;SDS011;6358;50.760;0.282;2023-02-03T07:14:03;1.97;;;1.10;;
12585;SDS011;6358;50.760;0.282;2023-02-03T07:16:29;1.73;;;0.90;;
12585;SDS011;6358;50.760;0.282;2023-02-03T07:18:56;2.77;;;1.20;;
12585;SDS011;6358;50.760;0.282;2023-02-03T07:21:24;1.40;;;1.00;;
12585;SDS011;6358;50.760;0.282;2023-02-03T07:23:50;1.27;;;0.90;;
12585;SDS011;6358;50.760;0.282;2023-02-03T07:26:16;1.10;;;0.80;;
12585;SDS011;6358;50.760;0.282;2023-02-03T07:28:43;1.50;;;0.80;;
12585;SDS011;6358;50.760;0.282;2023-02-03T07:31:09;2.00;;;1.00;;
12585;SDS011;6358;50.760;0.282;2023-02-03T07:33:36;1.43;;;0.80;;
12585;SDS011;6358;50.760;0.282;2023-02-03T07:36:02;1.60;;;0.83;;
12585;SDS011;6358;50.760;0.282;2023-02-03T07:38:28;1.73;;;0.90;;
12585;SDS011;6358;50.760;0.282;2023-02-03T07:40:55;1.13;;;0.80;;
12585;SDS011;6358;50.760;0.282;2023-02-03T07:43:21;1.30;;;0.80;;
12585;SDS011;6358;50.760;0.282;2023-02-03T07:45:47;1.07;;;0.80;;
12585;SDS011;6358;50.760;0.282;2023-02-03T07:48:13;1.93;;;1.10;;
12585;SDS011;6358;50.760;0.282;2023-02-03T07:50:39;2.10;;;0.80;;
12585;SDS011;6358;50.760;0.282;2023-02-03T07:53:06;1.47;;;0.70;;
12585;SDS011;6358;50.760;0.282;2023-02-03T07:55:36;1.10;;;0.83;;
12585;SDS011;6358;50.760;0.282;2023-02-03T07:58:03;1.60;;;0.70;;
12585;SDS011;6358;50.760;0.282;2023-02-03T08:00:29;2.57;;;0.90;;
12585;SDS011;6358;50.760;0.282;2023-02-03T08:02:56;2.93;;;1.10;;
12585;SDS011;6358;50.760;0.282;2023-02-03T08:05:22;4.93;;;0.90;;
12585;SDS011;6358;50.760;0.282;2023-02-03T08:07:48;2.43;;;1.03;;
12585;SDS011;6358;50.760;0.282;2023-02-03T08:10:14;2.17;;;0.90;;
12585;SDS011;6358;50.760;0.282;2023-02-03T08:12:41;3.33;;;1.10;;
12585;SDS011;6358;50.760;0.282;2023-02-03T08:15:08;1.97;;;0.97;;
12585;SDS011;6358;50.760;0.282;2023-02-03T08:17:34;1.63;;;0.80;;
12585;SDS011;6358;50.760;0.282;2023-02-03T08:20:04;2.47;;;1.00;;
12585;SDS011;6358;50.760;0.282;2023-02-03T08:22:30;1.53;;;0.83;;
12585;SDS011;6358;50.760;0.282;2023-02-03T08:24:56;1.70;;;1.00;;
12585;SDS011;6358;50.760;0.282;2023-02-03T08:27:22;4.47;;;0.90;;
12585;SDS011;6358;50.760;0.282;2023-02-03T08:29:48;2.33;;;0.83;;
12585;SDS011;6358;50.760;0.282;2023-02-03T08:32:15;2.33;;;0.90;;
12585;SDS011;6358;50.760;0.282;2023-02-03T08:34:42;1.43;;;0.90;;
12585;SDS011;6358;50.760;0.282;2023-02-03T08:37:09;1.60;;;0.80;;
12585;SDS011;6358;50.760;0.282;2023-02-03T08:39:35;2.53;;;0.80;;
12585;SDS011;6358;50.760;0.282;2023-02-03T08:42:02;8.40;;;1.00;;
12585;SDS011;6358;50.760;0.282;2023-02-03T08:44:29;2.83;;;1.17;;
12585;SDS011;6358;50.760;0.282;2023-02-03T08:46:55;1.93;;;0.83;;
12585;SDS011;6358;50.760;0.282;2023-02-03T08:49:22;3.77;;;0.80;;
12585;SDS011;6358;50.760;0.282;2023-02-03T08:51:50;1.63;;;0.93;;
12585;SDS011;6358;50.760;0.282;2023-02-03T08:54:17;4.87;;;0.90;;
12585;SDS011;6358;50.760;0.282;2023-02-03T08:56:43;2.97;;;1.30;;
12585;SDS011;6358;50.760;0.282;2023-02-03T08:59:10;8.47;;;7.57;;
12585;SDS011;6358;50.760;0.282;2023-02-03T09:01:36;40.27;;;35.77;;
12585;SDS011;6358;50.760;0.282;2023-02-03T09:04:04;89.77;;;80.20;;
12585;SDS011;6358;50.760;0.282;2023-02-03T09:06:32;114.10;;;100.47;;
12585;SDS011;6358;50.760;0.282;2023-02-03T09:08:58;128.87;;;114.80;;
12585;SDS011;6358;50.760;0.282;2023-02-03T09:11:24;149.30;;;133.30;;
12585;SDS011;6358;50.760;0.282;2023-02-03T09:13:52;145.97;;;130.40;;
12585;SDS011;6358;50.760;0.282;2023-02-03T09:16:18;155.63;;;138.13;;
12585;SDS011;6358;50.760;0.282;2023-02-03T09:18:47;155.73;;;138.80;;
12585;SDS011;6358;50.760;0.282;2023-02-03T09:21:14;153.03;;;136.67;;
12585;SDS011;6358;50.760;0.282;2023-02-03T09:23:41;148.10;;;132.10;;
12585;SDS011;6358;50.760;0.282;2023-02-03T09:26:08;150.17;;;134.07;;
12585;SDS011;6358;50.760;0.282;2023-02-03T09:28:35;147.93;;;131.97;;
12585;SDS011;6358;50.760;0.282;2023-02-03T09:31:08;147.93;;;132.00;;
12585;SDS011;6358;50.760;0.282;2023-02-03T09:33:34;142.70;;;127.07;;
12585;SDS011;6358;50.760;0.282;2023-02-03T09:36:01;138.27;;;123.80;;
12585;SDS011;6358;50.760;0.282;2023-02-03T09:38:27;133.10;;;119.03;;
12585;SDS011;6358;50.760;0.282;2023-02-03T09:40:58;132.57;;;118.27;;
12585;SDS011;6358;50.760;0.282;2023-02-03T09:46:01;123.40;;;110.67;;
12585;SDS011;6358;50.760;0.282;2023-02-03T09:48:30;120.20;;;107.17;;
12585;SDS011;6358;50.760;0.282;2023-02-03T09:50:59;118.53;;;106.23;;
12585;SDS011;6358;50.760;0.282;2023-02-03T09:53:34;115.83;;;103.27;;
12585;SDS011;6358;50.760;0.282;2023-02-03T09:56:01;111.60;;;99.87;;
12585;SDS011;6358;50.760;0.282;2023-02-03T09:58:31;107.20;;;95.83;;
12585;SDS011;6358;50.760;0.282;2023-02-03T10:00:59;104.63;;;93.63;;
12585;SDS011;6358;50.760;0.282;2023-02-03T10:08:35;94.07;;;83.87;;
12585;SDS011;6358;50.760;0.282;2023-02-03T10:11:10;91.87;;;82.07;;
12585;SDS011;6358;50.760;0.282;2023-02-03T10:13:43;88.63;;;79.10;;
12585;SDS011;6358;50.760;0.282;2023-02-03T10:18:40;80.50;;;71.83;;
12585;SDS011;6358;50.760;0.282;2023-02-03T10:21:11;77.37;;;69.17;;
12585;SDS011;6358;50.760;0.282;2023-02-03T10:23:39;72.33;;;64.60;;
12585;SDS011;6358;50.760;0.282;2023-02-03T10:26:48;73.63;;;65.57;;
12585;SDS011;6358;50.760;0.282;2023-02-03T10:28:56;68.70;;;61.07;;
12585;SDS011;6358;50.760;0.282;2023-02-03T10:31:23;64.93;;;55.87;;
12585;SDS011;6358;50.760;0.282;2023-02-03T10:33:58;62.27;;;55.50;;
12585;SDS011;6358;50.760;0.282;2023-02-03T10:41:39;51.57;;;45.97;;
12585;SDS011;6358;50.760;0.282;2023-02-03T10:44:06;51.23;;;45.43;;
12585;SDS011;6358;50.760;0.282;2023-02-03T10:46:35;51.97;;;46.33;;
12585;SDS011;6358;50.760;0.282;2023-02-03T10:49:02;51.03;;;45.43;;
12585;SDS011;6358;50.760;0.282;2023-02-03T10:51:29;50.10;;;42.10;;
12585;SDS011;6358;50.760;0.282;2023-02-03T10:53:59;45.40;;;40.53;;
12585;SDS011;6358;50.760;0.282;2023-02-03T10:56:28;45.03;;;38.90;;
12585;SDS011;6358;50.760;0.282;2023-02-03T10:58:55;43.73;;;37.07;;
12585;SDS011;6358;50.760;0.282;2023-02-03T11:01:26;44.40;;;37.77;;
12585;SDS011;6358;50.760;0.282;2023-02-03T11:03:54;41.63;;;35.67;;
12585;SDS011;6358;50.760;0.282;2023-02-03T11:06:21;38.93;;;34.07;;
12585;SDS011;6358;50.760;0.282;2023-02-03T11:08:48;39.93;;;34.27;;
12585;SDS011;6358;50.760;0.282;2023-02-03T11:13:41;40.30;;;33.73;;
12585;SDS011;6358;50.760;0.282;2023-02-03T11:16:17;38.67;;;32.83;;
12585;SDS011;6358;50.760;0.282;2023-02-03T11:18:55;36.60;;;32.60;;
12585;SDS011;6358;50.760;0.282;2023-02-03T11:21:31;38.97;;;31.60;;
12585;SDS011;6358;50.760;0.282;2023-02-03T11:24:15;40.97;;;32.17;;
12585;SDS011;6358;50.760;0.282;2023-02-03T11:26:59;35.57;;;30.90;;
12585;SDS011;6358;50.760;0.282;2023-02-03T11:29:34;36.83;;;29.37;;
12585;SDS011;6358;50.760;0.282;2023-02-03T11:32:05;35.97;;;28.97;;
12585;SDS011;6358;50.760;0.282;2023-02-03T11:34:38;31.73;;;27.47;;
12585;SDS011;6358;50.760;0.282;2023-02-03T11:40:34;28.93;;;25.67;;
12585;SDS011;6358;50.760;0.282;2023-02-03T11:47:45;25.67;;;22.93;;
12585;SDS011;6358;50.760;0.282;2023-02-03T11:50:18;31.10;;;22.97;;
12585;SDS011;6358;50.760;0.282;2023-02-03T12:00:47;24.57;;;20.83;;
12585;SDS011;6358;50.760;0.282;2023-02-03T12:11:23;24.50;;;19.10;;
12585;SDS011;6358;50.760;0.282;2023-02-03T12:19:13;23.63;;;18.13;;
12585;SDS011;6358;50.760;0.282;2023-02-03T12:21:42;21.53;;;17.17;;
12585;SDS011;6358;50.760;0.282;2023-02-03T12:29:43;18.53;;;14.93;;
12585;SDS011;6358;50.760;0.282;2023-02-03T12:32:18;18.47;;;15.37;;
12585;SDS011;6358;50.760;0.282;2023-02-03T12:34:51;18.17;;;15.50;;
12585;SDS011;6358;50.760;0.282;2023-02-03T12:37:21;17.90;;;14.97;;
12585;SDS011;6358;50.760;0.282;2023-02-03T12:39:50;19.73;;;15.30;;
12585;SDS011;6358;50.760;0.282;2023-02-03T12:44:46;15.87;;;13.60;;
12585;SDS011;6358;50.760;0.282;2023-02-03T12:52:20;16.00;;;13.67;;
12585;SDS011;6358;50.760;0.282;2023-02-03T12:57:19;16.27;;;12.70;;
12585;SDS011;6358;50.760;0.282;2023-02-03T12:59:55;13.33;;;11.93;;
12585;SDS011;6358;50.760;0.282;2023-02-03T13:02:23;15.33;;;13.03;;
12585;SDS011;6358;50.760;0.282;2023-02-03T13:05:01;18.53;;;12.40;;
12585;SDS011;6358;50.760;0.282;2023-02-03T13:07:32;14.93;;;12.47;;
12585;SDS011;6358;50.760;0.282;2023-02-03T13:10:11;14.03;;;12.30;;
12585;SDS011;6358;50.760;0.282;2023-02-03T13:12:40;17.37;;;12.20;;
12585;SDS011;6358;50.760;0.282;2023-02-03T13:15:18;20.47;;;12.53;;
12585;SDS011;6358;50.760;0.282;2023-02-03T13:20:13;12.33;;;10.80;;
12585;SDS011;6358;50.760;0.282;2023-02-03T13:22:40;12.57;;;11.20;;
12585;SDS011;6358;50.760;0.282;2023-02-03T13:35:24;12.37;;;9.97;;
12585;SDS011;6358;50.760;0.282;2023-02-03T13:43:12;12.93;;;9.57;;
12585;SDS011;6358;50.760;0.282;2023-02-03T13:45:43;12.07;;;9.10;;
12585;SDS011;6358;50.760;0.282;2023-02-03T13:48:15;10.43;;;9.10;;
12585;SDS011;6358;50.760;0.282;2023-02-03T13:50:42;10.20;;;8.90;;
12585;SDS011;6358;50.760;0.282;2023-02-03T13:53:16;11.00;;;8.27;;
12585;SDS011;6358;50.760;0.282;2023-02-03T13:55:50;10.37;;;8.57;;
12585;SDS011;6358;50.760;0.282;2023-02-03T13:58:25;9.23;;;7.93;;
12585;SDS011;6358;50.760;0.282;2023-02-03T14:05:51;10.60;;;7.90;;
12585;SDS011;6358;50.760;0.282;2023-02-03T14:13:35;8.67;;;7.33;;
12585;SDS011;6358;50.760;0.282;2023-02-03T14:17:02;9.10;;;7.13;;
12585;SDS011;6358;50.760;0.282;2023-02-03T14:18:57;7.83;;;7.03;;
12585;SDS011;6358;50.760;0.282;2023-02-03T14:21:23;7.97;;;6.83;;
12585;SDS011;6358;50.760;0.282;2023-02-03T14:24:07;7.90;;;6.27;;
12585;SDS011;6358;50.760;0.282;2023-02-03T14:26:36;10.53;;;6.63;;
12585;SDS011;6358;50.760;0.282;2023-02-03T14:29:03;8.30;;;6.83;;
12585;SDS011;6358;50.760;0.282;2023-02-03T14:31:30;9.07;;;6.40;;
12585;SDS011;6358;50.760;0.282;2023-02-03T14:36:30;7.83;;;6.50;;
12585;SDS011;6358;50.760;0.282;2023-02-03T14:38:59;7.37;;;6.20;;
12585;SDS011;6358;50.760;0.282;2023-02-03T14:41:43;8.20;;;5.80;;
12585;SDS011;6358;50.760;0.282;2023-02-03T14:44:15;9.47;;;6.23;;
12585;SDS011;6358;50.760;0.282;2023-02-03T14:49:27;6.17;;;5.17;;
12585;SDS011;6358;50.760;0.282;2023-02-03T14:54:53;7.07;;;5.50;;
12585;SDS011;6358;50.760;0.282;2023-02-03T15:00:24;6.40;;;5.20;;
12585;SDS011;6358;50.760;0.282;2023-02-03T15:05:43;5.73;;;4.97;;
12585;SDS011;6358;50.760;0.282;2023-02-03T15:10:54;4.90;;;4.30;;
12585;SDS011;6358;50.760;0.282;2023-02-03T15:13:27;7.07;;;4.83;;
12585;SDS011;6358;50.760;0.282;2023-02-03T15:15:57;5.97;;;4.87;;
12585;SDS011;6358;50.760;0.282;2023-02-03T15:18:27;5.73;;;4.57;;
12585;SDS011;6358;50.760;0.282;2023-02-03T15:20:53;7.33;;;4.73;;
12585;SDS011;6358;50.760;0.282;2023-02-03T15:26:31;5.90;;;4.50;;
12585;SDS011;6358;50.760;0.282;2023-02-03T15:28:32;5.43;;;4.70;;
12585;SDS011;6358;50.760;0.282;2023-02-03T15:31:03;9.93;;;5.60;;
12585;SDS011;6358;50.760;0.282;2023-02-03T15:33:31;5.13;;;4.43;;
12585;SDS011;6358;50.760;0.282;2023-02-03T15:36:01;5.80;;;4.47;;
12585;SDS011;6358;50.760;0.282;2023-02-03T15:38:32;5.83;;;4.87;;
12585;SDS011;6358;50.760;0.282;2023-02-03T15:41:00;4.70;;;4.13;;
12585;SDS011;6358;50.760;0.282;2023-02-03T15:43:30;4.80;;;4.10;;
12585;SDS011;6358;50.760;0.282;2023-02-03T15:46:05;5.93;;;4.63;;
12585;SDS011;6358;50.760;0.282;2023-02-03T15:48:49;5.73;;;3.90;;
12585;SDS011;6358;50.760;0.282;2023-02-03T15:51:17;4.23;;;3.83;;
12585;SDS011;6358;50.760;0.282;2023-02-03T15:54:03;4.40;;;3.83;;
12585;SDS011;6358;50.760;0.282;2023-02-03T15:59:02;4.10;;;3.70;;
12585;SDS011;6358;50.760;0.282;2023-02-03T16:01:28;6.67;;;4.10;;
12585;SDS011;6358;50.760;0.282;2023-02-03T16:03:55;5.40;;;3.63;;
12585;SDS011;6358;50.760;0.282;2023-02-03T16:08:55;3.90;;;3.50;;
12585;SDS011;6358;50.760;0.282;2023-02-03T16:13:48;4.43;;;3.00;;
12585;SDS011;6358;50.760;0.282;2023-02-03T16:16:15;4.47;;;3.53;;
12585;SDS011;6358;50.760;0.282;2023-02-03T16:18:49;4.67;;;3.53;;
12585;SDS011;6358;50.760;0.282;2023-02-03T16:21:24;5.77;;;3.40;;
12585;SDS011;6358;50.760;0.282;2023-02-03T16:23:50;4.57;;;3.20;;
12585;SDS011;6358;50.760;0.282;2023-02-03T16:26:17;4.00;;;3.07;;
12585;SDS011;6358;50.760;0.282;2023-02-03T16:31:58;2.97;;;2.57;;
12585;SDS011;6358;50.760;0.282;2023-02-03T16:34:44;3.53;;;2.90;;
12585;SDS011;6358;50.760;0.282;2023-02-03T16:40:16;3.93;;;2.97;;
12585;SDS011;6358;50.760;0.282;2023-02-03T16:43:01;4.13;;;2.70;;
12585;SDS011;6358;50.760;0.282;2023-02-03T16:45:50;3.97;;;3.07;;
12585;SDS011;6358;50.760;0.282;2023-02-03T16:48:37;4.00;;;2.47;;
12585;SDS011;6358;50.760;0.282;2023-02-03T16:51:21;2.97;;;2.47;;
12585;SDS011;6358;50.760;0.282;2023-02-03T16:53:47;3.53;;;2.47;;
12585;SDS011;6358;50.760;0.282;2023-02-03T16:56:13;2.90;;;2.60;;
12585;SDS011;6358;50.760;0.282;2023-02-03T16:58:42;3.33;;;2.50;;
12585;SDS011;6358;50.760;0.282;2023-02-03T17:01:09;3.30;;;2.43;;
12585;SDS011;6358;50.760;0.282;2023-02-03T17:03:36;2.67;;;2.40;;
12585;SDS011;6358;50.760;0.282;2023-02-03T17:06:06;4.03;;;2.23;;
12585;SDS011;6358;50.760;0.282;2023-02-03T17:08:33;4.73;;;2.50;;
12585;SDS011;6358;50.760;0.282;2023-02-03T17:11:05;5.53;;;2.37;;
12585;SDS011;6358;50.760;0.282;2023-02-03T17:13:32;2.40;;;2.17;;
12585;SDS011;6358;50.760;0.282;2023-02-03T17:15:58;3.70;;;2.27;;
12585;SDS011;6358;50.760;0.282;2023-02-03T17:18:24;2.50;;;2.30;;
12585;SDS011;6358;50.760;0.282;2023-02-03T17:20:50;2.00;;;1.80;;
12585;SDS011;6358;50.760;0.282;2023-02-03T17:23:17;2.27;;;1.93;;
12585;SDS011;6358;50.760;0.282;2023-02-03T17:25:44;2.67;;;1.97;;